Jeffersonville, Ohio
Current Conditions -  °F | °C
As of 4:56 PM on Sunday 21 Dec 2014 (Local Time) from KSGH Reporting Station
Haze Haze  
Wind Chill: 27°   Ceiling: Unl
Heat Index: 33°   Visibility: 6mi
Dew Point: 27°   Wind: 6mph
Humidity: 79%   Direction: 140°SE
Pressure: 30.19"   Gusts: NA
Location:  39.65°N, 83.56°W
Report Text: KSGH 212156Z AUTO 14005KT 6SM HZ CLR 01/M03 A3019 RMK AO2 T00051027 SLP234
Loading
Personal Weather Stations






























Interactive Weather Map New forecast layout! Learn more

10-Day Weather Forecast

Advertisements
Track Severe Weather on mobile